Time;durP1;ratioP1;P1;durP2;ratioP2;P2;SDS_P1;SDS_P2;PMS_P1;PMS_P2;Temp;Humidity;BMP_temperature;BMP_pressure;BME280_temperature;BME280_humidity;BME280_pressure;Samples;Min_cycle;Max_cycle;Signal;HPM_P1;HPM_P2
2024/03/31 00:00:47;;;;;;;16.43;4.47;;;11.70;99.90;;;;;;5114295;28;20260;-59
2024/03/31 00:03:13;;;;;;;14.70;4.23;;;11.70;99.90;;;;;;5114255;28;20665;-59
2024/03/31 00:05:39;;;;;;;15.03;4.07;;;11.70;99.90;;;;;;5105640;28;20216;-60
2024/03/31 00:08:06;;;;;;;10.83;3.90;;;11.70;99.90;;;;;;5113704;28;20268;-59
2024/03/31 00:10:34;;;;;;;19.20;5.10;;;11.40;99.90;;;;;;5113979;28;20199;-59
2024/03/31 00:12:59;;;;;;;17.10;5.10;;;11.90;99.90;;;;;;5113844;28;20207;-59
2024/03/31 00:15:26;;;;;;;16.30;4.63;;;11.90;99.90;;;;;;5113954;28;20241;-59
2024/03/31 00:17:52;;;;;;;18.67;4.33;;;12.00;99.90;;;;;;5113763;28;20224;-60
2024/03/31 00:20:18;;;;;;;22.87;5.60;;;12.00;99.90;;;;;;5113657;28;20675;-60
2024/03/31 00:22:46;;;;;;;16.60;4.70;;;12.10;99.90;;;;;;5113717;28;20704;-60
2024/03/31 00:25:13;;;;;;;24.57;4.80;;;12.10;99.90;;;;;;5113571;28;20222;-59
2024/03/31 00:27:40;;;;;;;20.03;5.30;;;12.10;99.90;;;;;;5113399;28;20219;-59
2024/03/31 00:30:07;;;;;;;16.37;5.33;;;12.10;99.90;;;;;;5113678;28;20200;-59
2024/03/31 00:32:33;;;;;;;16.93;5.43;;;12.00;99.90;;;;;;5113421;27;20204;-59
2024/03/31 00:35:00;;;;;;;25.87;5.47;;;12.00;99.90;;;;;;5113487;28;20200;-60
2024/03/31 00:37:25;;;;;;;17.87;4.90;;;11.90;99.90;;;;;;5113208;28;20727;-60
2024/03/31 00:39:52;;;;;;;23.03;5.07;;;11.80;99.90;;;;;;5113645;28;20203;-59
2024/03/31 00:42:18;;;;;;;18.53;4.53;;;11.70;99.90;;;;;;5113489;28;20200;-59
2024/03/31 00:44:46;;;;;;;13.50;4.57;;;11.60;99.90;;;;;;5113330;28;20269;-59
2024/03/31 00:47:11;;;;;;;15.63;4.53;;;11.50;99.90;;;;;;5112799;28;20250;-59
2024/03/31 00:49:38;;;;;;;25.43;4.70;;;11.40;99.90;;;;;;5113107;28;20195;-59
2024/03/31 00:52:05;;;;;;;10.00;4.20;;;11.40;99.90;;;;;;5113217;28;20200;-59
2024/03/31 00:54:32;;;;;;;22.73;4.57;;;11.50;99.90;;;;;;5113275;28;20203;-59
2024/03/31 00:56:58;;;;;;;18.07;5.03;;;11.60;99.90;;;;;;5113653;28;20315;-60
2024/03/31 00:59:25;;;;;;;17.63;4.33;;;11.60;99.90;;;;;;5113066;28;20278;-59
2024/03/31 01:01:52;;;;;;;19.53;5.53;;;11.70;99.90;;;;;;5113148;28;20208;-59
2024/03/31 01:04:18;;;;;;;12.07;3.63;;;11.60;99.90;;;;;;5112567;28;20571;-59
2024/03/31 01:06:44;;;;;;;17.03;4.23;;;11.70;99.90;;;;;;5112977;28;20219;-59
2024/03/31 01:09:11;;;;;;;17.27;4.27;;;11.60;99.90;;;;;;5112886;28;20245;-59
2024/03/31 01:11:37;;;;;;;20.73;5.13;;;11.60;99.90;;;;;;5112682;28;20611;-60
2024/03/31 01:14:05;;;;;;;14.80;3.93;;;11.60;99.90;;;;;;5112799;28;20191;-59
2024/03/31 01:16:31;;;;;;;15.93;3.90;;;11.70;99.90;;;;;;5112523;28;20717;-60
2024/03/31 01:18:59;;;;;;;17.80;3.93;;;11.70;99.90;;;;;;5112344;28;20248;-59
2024/03/31 01:21:26;;;;;;;20.87;4.53;;;11.60;99.90;;;;;;5112744;28;20207;-59
2024/03/31 01:23:56;;;;;;;18.47;4.37;;;11.60;99.90;;;;;;5112632;28;20211;-59
2024/03/31 01:26:22;;;;;;;19.30;4.13;;;11.60;99.90;;;;;;5112384;28;20223;-60
2024/03/31 01:28:49;;;;;;;20.13;4.30;;;11.60;99.90;;;;;;5112356;28;20206;-60
2024/03/31 01:31:15;;;;;;;19.33;4.50;;;11.70;99.90;;;;;;5112405;28;20204;-61
2024/03/31 01:33:41;;;;;;;17.10;4.00;;;11.70;99.90;;;;;;5112578;28;20633;-60
2024/03/31 01:36:07;;;;;;;11.13;3.77;;;11.70;99.90;;;;;;5112611;28;20219;-59
2024/03/31 01:38:34;;;;;;;17.77;4.50;;;11.70;99.90;;;;;;5112166;28;20203;-59
2024/03/31 01:41:01;;;;;;;15.97;4.10;;;11.70;99.90;;;;;;5112276;28;20199;-59
2024/03/31 01:43:28;;;;;;;24.63;4.43;;;11.70;99.90;;;;;;5112256;28;20285;-60
2024/03/31 01:45:53;;;;;;;15.37;3.60;;;11.70;99.90;;;;;;5111981;28;20223;-59
2024/03/31 01:48:20;;;;;;;17.37;3.80;;;11.80;99.90;;;;;;5112193;28;20625;-60
2024/03/31 01:50:46;;;;;;;14.83;3.90;;;11.60;99.90;;;;;;5112346;28;20578;-61
2024/03/31 01:53:12;;;;;;;19.80;3.83;;;11.50;99.90;;;;;;5112126;28;20203;-59
2024/03/31 01:55:38;;;;;;;21.57;4.67;;;11.40;99.90;;;;;;5112007;28;20195;-60
2024/03/31 01:58:06;;;;;;;18.00;4.07;;;11.30;99.90;;;;;;5111314;28;20272;-60
2024/03/31 02:00:32;;;;;;;16.47;3.70;;;11.20;99.90;;;;;;5111999;28;20206;-61
2024/03/31 02:02:59;;;;;;;15.00;4.87;;;11.30;99.90;;;;;;5112688;28;20581;-59
2024/03/31 02:05:25;;;;;;;18.60;4.40;;;11.30;99.90;;;;;;5112698;28;20269;-60
2024/03/31 02:07:52;;;;;;;21.33;5.47;;;11.20;99.90;;;;;;5112219;28;20219;-60
2024/03/31 02:10:18;;;;;;;16.53;5.37;;;11.20;99.90;;;;;;5112369;28;20211;-61
2024/03/31 02:12:45;;;;;;;17.23;5.37;;;11.30;99.90;;;;;;5112176;28;20605;-60
2024/03/31 02:15:12;;;;;;;15.90;5.27;;;11.50;99.90;;;;;;5111983;28;20691;-61
2024/03/31 02:17:38;;;;;;;18.40;6.07;;;11.60;99.90;;;;;;5111907;28;20223;-58
2024/03/31 02:20:06;;;;;;;23.30;5.80;;;11.70;99.90;;;;;;5112437;28;20582;-60
2024/03/31 02:22:33;;;;;;;21.60;5.43;;;11.50;99.90;;;;;;5111771;28;20709;-60
2024/03/31 02:24:59;;;;;;;16.43;5.13;;;11.10;99.90;;;;;;5111991;28;20636;-60
2024/03/31 02:27:25;;;;;;;20.23;5.57;;;11.20;99.90;;;;;;5111469;28;20226;-60
2024/03/31 02:29:52;;;;;;;20.13;5.50;;;11.20;99.90;;;;;;5111982;28;20633;-61
2024/03/31 02:32:20;;;;;;;13.70;5.20;;;11.20;99.90;;;;;;5112036;28;20241;-59
2024/03/31 02:34:45;;;;;;;16.40;5.63;;;11.30;99.90;;;;;;5112285;28;20204;-58
2024/03/31 02:37:12;;;;;;;26.80;6.10;;;11.30;99.90;;;;;;5111723;28;20219;-59
2024/03/31 02:39:38;;;;;;;17.53;5.97;;;11.40;99.90;;;;;;5111819;28;20260;-59
2024/03/31 02:42:05;;;;;;;23.90;5.87;;;11.30;99.90;;;;;;5111834;28;20196;-59
2024/03/31 02:44:30;;;;;;;17.17;5.50;;;11.20;99.90;;;;;;5112092;28;20200;-59
2024/03/31 02:46:57;;;;;;;14.67;5.00;;;11.20;99.90;;;;;;5111208;28;20231;-59
2024/03/31 02:49:24;;;;;;;22.10;5.47;;;11.10;99.90;;;;;;5111814;28;20211;-58
2024/03/31 02:51:51;;;;;;;22.73;5.70;;;11.10;99.90;;;;;;5111600;28;20211;-59
2024/03/31 02:54:16;;;;;;;19.93;5.63;;;11.00;99.90;;;;;;5111670;28;20203;-59
2024/03/31 02:56:43;;;;;;;21.67;5.53;;;11.00;99.90;;;;;;5111244;28;20595;-58
2024/03/31 02:59:09;;;;;;;26.10;5.60;;;11.00;99.90;;;;;;5111926;28;20200;-58
2024/03/31 03:01:35;;;;;;;16.87;5.67;;;11.00;99.90;;;;;;5111850;28;20207;-59
2024/03/31 03:04:01;;;;;;;13.50;5.27;;;11.00;99.90;;;;;;5111701;28;20212;-59
2024/03/31 03:06:29;;;;;;;14.17;5.50;;;11.00;99.90;;;;;;5111332;28;20579;-59
2024/03/31 03:08:55;;;;;;;14.37;5.17;;;11.10;99.90;;;;;;5111280;28;20207;-59
2024/03/31 03:11:22;;;;;;;19.63;5.03;;;11.10;99.90;;;;;;5114588;28;20196;-59
2024/03/31 03:13:48;;;;;;;22.03;6.13;;;11.10;99.90;;;;;;5115180;28;20268;-59
2024/03/31 03:16:14;;;;;;;21.53;5.37;;;11.10;99.90;;;;;;5115413;27;20720;-59
2024/03/31 03:18:40;;;;;;;27.77;5.90;;;11.10;99.90;;;;;;5115177;28;20212;-59
2024/03/31 03:21:06;;;;;;;19.53;5.07;;;11.10;99.90;;;;;;5115051;28;20253;-59
2024/03/31 03:23:33;;;;;;;16.73;5.87;;;11.10;99.90;;;;;;5114984;28;20211;-58
2024/03/31 03:26:01;;;;;;;24.37;6.00;;;11.10;99.90;;;;;;5114771;28;20219;-59
2024/03/31 03:28:26;;;;;;;23.47;5.17;;;11.00;99.90;;;;;;5115044;28;20196;-59
2024/03/31 03:30:53;;;;;;;20.40;5.27;;;10.90;99.90;;;;;;5115036;28;20202;-59
2024/03/31 03:33:20;;;;;;;20.60;5.67;;;10.70;99.90;;;;;;5114857;28;20203;-59
2024/03/31 03:35:47;;;;;;;16.77;4.87;;;10.60;99.90;;;;;;5106410;28;20220;-59
2024/03/31 03:38:13;;;;;;;15.43;5.17;;;10.60;99.90;;;;;;5114496;28;20200;-58
2024/03/31 03:40:41;;;;;;;20.70;5.40;;;10.50;99.90;;;;;;5114544;28;20208;-58
2024/03/31 03:43:08;;;;;;;23.13;6.17;;;10.40;99.90;;;;;;5114827;28;20199;-59
2024/03/31 03:45:35;;;;;;;19.93;5.57;;;10.30;99.90;;;;;;5114626;28;20334;-59
2024/03/31 03:48:00;;;;;;;16.90;4.80;;;10.30;99.90;;;;;;5114358;28;20223;-60
2024/03/31 03:50:27;;;;;;;14.47;5.03;;;10.20;99.90;;;;;;5114921;28;20703;-60
2024/03/31 03:52:53;;;;;;;21.13;5.40;;;10.20;99.90;;;;;;5114429;28;20229;-60
2024/03/31 03:55:20;;;;;;;26.27;5.07;;;10.10;99.90;;;;;;5114547;27;20188;-61
2024/03/31 03:57:47;;;;;;;22.20;5.80;;;10.10;99.90;;;;;;5114008;28;20269;-61
2024/03/31 04:00:14;;;;;;;17.57;5.17;;;10.00;99.90;;;;;;5114432;28;20230;-60
2024/03/31 04:02:40;;;;;;;15.83;5.30;;;10.00;99.90;;;;;;5114256;28;20208;-60
2024/03/31 04:05:06;;;;;;;15.40;5.50;;;9.90;99.90;;;;;;5114132;28;20670;-60
2024/03/31 04:07:32;;;;;;;24.90;5.37;;;9.80;99.90;;;;;;5113603;28;20708;-61
2024/03/31 04:09:59;;;;;;;20.57;5.07;;;9.80;99.90;;;;;;5114273;28;20248;-61
2024/03/31 04:12:24;;;;;;;16.40;5.00;;;9.80;99.90;;;;;;5113977;28;20200;-60
2024/03/31 04:14:53;;;;;;;11.20;4.93;;;9.70;99.90;;;;;;5114210;27;20268;-63
2024/03/31 04:17:18;;;;;;;13.43;4.53;;;9.70;99.90;;;;;;5113842;28;20284;-61
2024/03/31 04:19:45;;;;;;;14.63;4.30;;;9.60;99.90;;;;;;5113866;28;20608;-61
2024/03/31 04:22:11;;;;;;;19.63;5.57;;;9.60;99.90;;;;;;5113986;28;20211;-62
2024/03/31 04:24:38;;;;;;;15.37;4.57;;;9.60;99.90;;;;;;5113780;28;20268;-61
2024/03/31 04:27:04;;;;;;;13.03;4.63;;;9.50;99.90;;;;;;5113456;28;20219;-61
2024/03/31 04:29:30;;;;;;;22.23;5.80;;;9.50;99.90;;;;;;5113735;28;20576;-61
2024/03/31 04:31:58;;;;;;;21.37;5.83;;;9.40;99.90;;;;;;5113722;28;20196;-62
2024/03/31 04:34:28;;;;;;;16.53;5.00;;;9.40;99.90;;;;;;5113302;28;20208;-61
2024/03/31 04:36:55;;;;;;;24.20;5.73;;;9.30;99.90;;;;;;5113698;28;20298;-61
2024/03/31 04:39:23;;;;;;;18.20;4.70;;;9.30;99.90;;;;;;5113412;28;20664;-61
2024/03/31 04:41:51;;;;;;;31.67;5.37;;;9.30;99.90;;;;;;5113437;28;20204;-61
2024/03/31 04:44:18;;;;;;;15.17;3.97;;;9.20;99.90;;;;;;5113430;28;20199;-61
2024/03/31 04:46:46;;;;;;;15.57;3.90;;;9.20;99.90;;;;;;5112683;28;20223;-61
2024/03/31 04:49:14;;;;;;;14.70;4.27;;;9.20;99.90;;;;;;5113087;28;20247;-61
2024/03/31 04:51:40;;;;;;;16.97;3.93;;;9.10;99.90;;;;;;5113340;28;20287;-61
2024/03/31 04:54:07;;;;;;;12.37;3.37;;;9.10;99.90;;;;;;5113370;28;20282;-61
2024/03/31 04:56:33;;;;;;;17.83;4.23;;;9.10;99.90;;;;;;5113040;28;20261;-61
2024/03/31 04:58:59;;;;;;;15.67;4.23;;;9.10;99.90;;;;;;5112947;28;20613;-61
2024/03/31 05:01:25;;;;;;;22.27;4.63;;;9.10;99.90;;;;;;5112870;28;20260;-61
2024/03/31 05:03:52;;;;;;;16.63;4.97;;;9.10;99.90;;;;;;5112891;28;20199;-61
2024/03/31 05:06:19;;;;;;;20.37;5.27;;;9.10;99.90;;;;;;5113024;28;20492;-61
2024/03/31 05:08:45;;;;;;;13.07;4.20;;;9.10;99.90;;;;;;5112746;28;20234;-61
2024/03/31 05:11:11;;;;;;;13.60;4.67;;;9.10;99.90;;;;;;5112938;28;20276;-62
2024/03/31 05:13:38;;;;;;;13.17;4.07;;;9.10;99.90;;;;;;5112577;28;20661;-62
2024/03/31 05:16:05;;;;;;;15.90;4.30;;;9.20;99.90;;;;;;5112582;28;20230;-62
2024/03/31 05:18:32;;;;;;;14.97;4.43;;;9.20;99.90;;;;;;5112226;28;20199;-61
2024/03/31 05:20:59;;;;;;;14.47;4.80;;;9.10;99.90;;;;;;5112818;28;20287;-62
2024/03/31 05:23:28;;;;;;;13.57;4.30;;;9.20;99.90;;;;;;5112421;28;20740;-61
2024/03/31 05:25:55;;;;;;;11.93;4.80;;;9.30;99.90;;;;;;5112441;28;20298;-62
2024/03/31 05:28:22;;;;;;;17.30;4.57;;;9.30;99.90;;;;;;5112482;28;20202;-62
2024/03/31 05:30:48;;;;;;;11.83;4.43;;;9.30;99.90;;;;;;5112439;28;20196;-62
2024/03/31 05:33:15;;;;;;;21.30;5.63;;;9.30;99.90;;;;;;5112025;28;20196;-62
2024/03/31 05:35:42;;;;;;;16.60;5.00;;;9.30;99.90;;;;;;5112463;28;20208;-62
2024/03/31 05:38:09;;;;;;;17.07;5.47;;;9.30;99.90;;;;;;5112382;28;20227;-61
2024/03/31 05:40:38;;;;;;;21.40;5.20;;;9.30;99.90;;;;;;5112295;28;20215;-62
2024/03/31 05:43:05;;;;;;;13.33;4.63;;;9.30;99.90;;;;;;5112669;28;20584;-62
2024/03/31 05:45:31;;;;;;;13.80;4.70;;;9.30;99.90;;;;;;5112014;28;20203;-61
2024/03/31 05:47:57;;;;;;;19.87;5.17;;;9.40;99.90;;;;;;5112034;28;20643;-62
2024/03/31 05:50:23;;;;;;;16.80;4.53;;;9.40;99.90;;;;;;5112603;28;20203;-62
2024/03/31 05:52:49;;;;;;;20.80;4.40;;;9.40;99.90;;;;;;5112318;28;20206;-61
2024/03/31 05:55:15;;;;;;;17.37;3.93;;;9.40;99.90;;;;;;5112281;28;20203;-61
2024/03/31 05:57:43;;;;;;;16.77;4.30;;;9.40;99.90;;;;;;5111749;28;20238;-61
2024/03/31 06:00:10;;;;;;;15.17;4.37;;;9.30;99.90;;;;;;5112084;28;20203;-62
2024/03/31 06:02:37;;;;;;;19.80;4.67;;;9.30;99.90;;;;;;5111837;28;20671;-61
2024/03/31 06:05:03;;;;;;;13.37;4.43;;;9.30;99.90;;;;;;5111982;28;20672;-63
2024/03/31 06:07:31;;;;;;;11.93;3.97;;;9.40;99.90;;;;;;5111944;28;20211;-60
2024/03/31 06:09:57;;;;;;;20.70;4.80;;;9.50;99.90;;;;;;5112156;28;20248;-62
2024/03/31 06:12:24;;;;;;;15.83;4.53;;;9.70;99.90;;;;;;5111939;28;20588;-62
2024/03/31 06:14:51;;;;;;;16.93;4.23;;;9.90;99.90;;;;;;5112150;28;20203;-63
2024/03/31 06:17:18;;;;;;;15.90;4.17;;;10.10;99.90;;;;;;5111765;28;20272;-61
2024/03/31 06:19:43;;;;;;;16.47;4.30;;;10.20;99.90;;;;;;5111964;28;20264;-60
2024/03/31 06:22:10;;;;;;;13.10;3.93;;;10.30;99.90;;;;;;5111958;28;20199;-62
2024/03/31 06:24:36;;;;;;;13.50;4.00;;;10.40;99.90;;;;;;5112091;28;20208;-61
2024/03/31 06:27:02;;;;;;;19.40;4.90;;;10.50;99.90;;;;;;5111588;28;20226;-62
2024/03/31 06:29:28;;;;;;;15.57;4.80;;;10.60;99.90;;;;;;5111882;28;20203;-61
2024/03/31 06:31:56;;;;;;;22.57;5.20;;;10.70;99.90;;;;;;5111947;28;20199;-61
2024/03/31 06:34:22;;;;;;;20.67;4.77;;;11.00;99.90;;;;;;5112033;28;20210;-61
2024/03/31 06:36:48;;;;;;;15.33;5.10;;;11.40;99.90;;;;;;5111587;28;20219;-60
2024/03/31 06:39:14;;;;;;;16.73;4.53;;;11.70;99.90;;;;;;5111902;28;20207;-61
2024/03/31 06:41:41;;;;;;;16.47;4.93;;;11.90;99.90;;;;;;5111611;28;20199;-61
2024/03/31 06:44:06;;;;;;;21.47;5.03;;;12.20;99.90;;;;;;5113319;28;20257;-61
2024/03/31 06:46:33;;;;;;;21.30;4.93;;;12.40;99.90;;;;;;5115760;28;20219;-61
2024/03/31 06:49:00;;;;;;;20.23;5.33;;;12.90;99.90;;;;;;5115404;28;20601;-62
2024/03/31 06:51:27;;;;;;;16.23;4.43;;;13.50;99.90;;;;;;5115519;28;20664;-58
2024/03/31 06:53:52;;;;;;;16.80;4.70;;;14.00;99.90;;;;;;5115596;28;20729;-61
2024/03/31 06:56:19;;;;;;;19.30;4.43;;;14.10;99.90;;;;;;5115603;28;20219;-60
2024/03/31 06:58:45;;;;;;;12.33;3.60;;;14.10;99.90;;;;;;5115046;28;20666;-60
2024/03/31 07:01:12;;;;;;;16.03;4.60;;;14.40;99.90;;;;;;5115443;28;20199;-61
2024/03/31 07:03:37;;;;;;;20.07;4.20;;;15.40;99.90;;;;;;5115268;28;20208;-61
2024/03/31 07:06:06;;;;;;;22.70;4.75;;;16.70;99.90;;;;;;5115405;28;20238;-61
2024/03/31 07:08:31;;;;;;;18.35;4.63;;;17.60;99.90;;;;;;5114906;28;20208;-61
2024/03/31 07:10:58;;;;;;;16.27;4.57;;;18.30;99.90;;;;;;5115368;28;20578;-61
2024/03/31 07:13:24;;;;;;;16.45;4.63;;;18.70;99.90;;;;;;5115212;28;20673;-59
2024/03/31 07:15:51;;;;;;;22.77;4.38;;;18.60;99.90;;;;;;5115266;28;20241;-61
2024/03/31 07:18:16;;;;;;;12.50;3.58;;;18.40;99.90;;;;;;5115101;28;20204;-60
2024/03/31 07:20:43;;;;;;;15.77;4.30;;;18.80;99.90;;;;;;5115104;28;20210;-61
2024/03/31 07:23:10;;;;;;;18.80;4.10;;;19.10;99.90;;;;;;5115205;28;20754;-61
2024/03/31 07:25:37;;;;;;;16.38;3.78;;;19.30;99.90;;;;;;5114678;28;20629;-61
2024/03/31 07:28:03;;;;;;;16.63;4.15;;;19.60;99.90;;;;;;5114604;28;20255;-61
2024/03/31 07:30:30;;;;;;;15.68;4.20;;;19.90;99.90;;;;;;5114930;28;20195;-61
2024/03/31 07:32:55;;;;;;;13.80;3.47;;;20.10;99.90;;;;;;5114824;28;20200;-61
2024/03/31 07:35:22;;;;;;;13.13;4.22;;;20.50;99.90;;;;;;5114790;28;20200;-61
2024/03/31 07:37:48;;;;;;;15.10;4.00;;;21.40;99.90;;;;;;5114160;28;20719;-61
2024/03/31 07:40:16;;;;;;;20.95;4.07;;;22.50;99.90;;;;;;5114443;28;20203;-61
2024/03/31 07:42:43;;;;;;;15.85;3.80;;;23.30;99.90;;;;;;5114180;28;20699;-61
2024/03/31 07:45:10;;;;;;;17.15;3.78;;;23.80;99.90;;;;;;5114435;28;20282;-61
2024/03/31 07:47:36;;;;;;;13.88;3.38;;;24.20;99.20;;;;;;5114432;28;20305;-61
2024/03/31 07:50:02;;;;;;;15.65;3.50;;;24.50;98.80;;;;;;5114585;28;20665;-61
2024/03/31 07:52:29;;;;;;;17.65;3.40;;;24.60;97.80;;;;;;5114186;28;20199;-64
2024/03/31 07:54:55;;;;;;;15.15;3.70;;;25.10;97.10;;;;;;5113808;28;20718;-64
2024/03/31 07:57:23;;;;;;;15.23;3.50;;;;;;;;;;5113716;28;20265;-65
2024/03/31 07:59:49;;;;;;;21.80;4.10;;;26.80;94.00;;;;;;5112071;28;20333;-64
2024/03/31 08:02:15;;;;;;;17.77;3.60;;;27.20;91.90;;;;;;5113648;28;20670;-66
2024/03/31 08:04:42;;;;;;;16.20;3.95;;;26.90;91.30;;;;;;5113951;28;20206;-63
2024/03/31 08:07:07;;;;;;;16.02;3.90;;;26.00;92.30;;;;;;5113556;28;20220;-62
2024/03/31 08:09:34;;;;;;;15.18;3.40;;;25.10;93.20;;;;;;5113924;28;20204;-61
2024/03/31 08:12:00;;;;;;;17.83;3.50;;;24.20;94.20;;;;;;5114022;28;20207;-63
2024/03/31 08:14:28;;;;;;;15.43;3.67;;;23.30;95.20;;;;;;5113845;28;20674;-62
2024/03/31 08:16:54;;;;;;;13.60;3.50;;;22.20;96.30;;;;;;5113790;28;20264;-63
2024/03/31 08:19:20;;;;;;;11.95;3.80;;;21.40;97.70;;;;;;5113866;28;20612;-63
2024/03/31 08:21:46;;;;;;;19.63;3.60;;;20.70;99.30;;;;;;5111635;28;20729;-62
2024/03/31 08:24:13;;;;;;;14.85;3.40;;;20.10;99.90;;;;;;5106917;28;20200;-61
2024/03/31 08:26:38;;;;;;;18.60;4.00;;;19.60;99.90;;;;;;5111417;28;20242;-62
2024/03/31 08:29:05;;;;;;;16.38;3.42;;;19.20;99.90;;;;;;5113829;28;20196;-62
2024/03/31 08:31:32;;;;;;;12.27;3.33;;;18.80;99.90;;;;;;5113407;28;20291;-60
2024/03/31 08:33:59;;;;;;;17.50;3.70;;;18.60;99.90;;;;;;5113333;28;20210;-60
2024/03/31 08:36:25;;;;;;;14.40;3.00;;;18.60;99.90;;;;;;5113136;28;20220;-61
2024/03/31 08:38:51;;;;;;;16.02;3.15;;;18.30;99.90;;;;;;5112820;28;20202;-61
2024/03/31 08:41:26;;;;;;;12.82;2.97;;;18.00;99.90;;;;;;5113305;28;20203;-60
2024/03/31 08:43:56;;;;;;;20.00;3.47;;;17.90;99.90;;;;;;5113199;28;20484;-61
2024/03/31 08:46:22;;;;;;;17.17;3.42;;;17.70;99.90;;;;;;5113215;28;20523;-62
2024/03/31 08:48:50;;;;;;;14.88;3.03;;;17.70;99.90;;;;;;5112428;28;20208;-63
2024/03/31 08:51:16;;;;;;;18.63;3.55;;;17.70;99.90;;;;;;5113200;28;20214;-62
2024/03/31 08:53:44;;;;;;;19.85;2.90;;;17.70;99.90;;;;;;5113167;28;20206;-62
2024/03/31 08:56:09;;;;;;;15.90;3.20;;;17.60;99.90;;;;;;5113499;28;20708;-62
2024/03/31 08:58:39;;;;;;;16.08;3.60;;;17.60;99.90;;;;;;5113071;27;20207;-62
2024/03/31 09:01:05;;;;;;;17.23;3.30;;;17.70;99.90;;;;;;5112831;27;20203;-62
2024/03/31 09:03:32;;;;;;;9.13;2.58;;;17.70;99.90;;;;;;5112244;28;20203;-61
2024/03/31 09:05:59;;;;;;;21.73;2.95;;;17.80;99.90;;;;;;5112695;28;20249;-62
2024/03/31 09:08:26;;;;;;;10.73;3.08;;;18.10;99.90;;;;;;5112276;28;20215;-62
2024/03/31 09:10:52;;;;;;;11.20;2.85;;;18.30;99.90;;;;;;5112457;28;20203;-62
2024/03/31 09:13:19;;;;;;;16.83;2.90;;;18.40;99.90;;;;;;5112482;28;20576;-62
2024/03/31 09:15:44;;;;;;;10.15;2.83;;;18.40;99.90;;;;;;5111957;28;20207;-62
2024/03/31 09:18:11;;;;;;;15.93;2.25;;;18.30;99.90;;;;;;5112419;28;20195;-62
2024/03/31 09:20:37;;;;;;;18.85;2.88;;;18.10;99.90;;;;;;5112459;28;20207;-61
2024/03/31 09:23:05;;;;;;;12.27;2.47;;;18.00;99.90;;;;;;5112420;28;20684;-62
2024/03/31 09:25:31;;;;;;;14.20;2.63;;;17.90;99.90;;;;;;5112401;28;20261;-59
2024/03/31 09:28:00;;;;;;;14.38;2.83;;;17.80;99.90;;;;;;5112378;28;20227;-60
2024/03/31 09:30:28;;;;;;;15.35;2.65;;;17.60;99.90;;;;;;5112066;28;20210;-60
2024/03/31 09:32:55;;;;;;;15.00;2.88;;;17.50;99.90;;;;;;5112222;28;20203;-61
2024/03/31 09:35:23;;;;;;;15.68;2.97;;;17.70;99.90;;;;;;5112341;28;20230;-61
2024/03/31 09:37:50;;;;;;;16.48;2.80;;;17.80;99.90;;;;;;5111867;28;20264;-61
2024/03/31 09:40:18;;;;;;;12.63;2.70;;;17.80;99.90;;;;;;5112380;28;20675;-61
2024/03/31 09:42:45;;;;;;;15.65;3.20;;;17.80;99.90;;;;;;5112119;28;20215;-61
2024/03/31 09:45:11;;;;;;;14.15;3.25;;;17.90;99.90;;;;;;5111831;28;20211;-60
2024/03/31 09:47:41;;;;;;;18.90;2.67;;;18.10;99.90;;;;;;5111807;22;20236;-53
2024/03/31 09:50:14;;;;;;;23.50;3.22;;;18.30;99.90;;;;;;5071335;28;20212;-57
2024/03/31 09:52:43;;;;;;;16.63;2.95;;;18.50;99.90;;;;;;5071364;28;20278;-54
2024/03/31 09:55:12;;;;;;;13.23;2.90;;;18.60;99.90;;;;;;5071388;28;20252;-54
2024/03/31 09:57:43;;;;;;;15.45;2.55;;;18.80;99.90;;;;;;5070686;28;20697;-57
2024/03/31 10:00:13;;;;;;;18.75;2.85;;;18.80;99.90;;;;;;5071720;28;20204;-57
2024/03/31 10:02:45;;;;;;;13.85;2.35;;;18.80;99.90;;;;;;5071180;28;20213;-57
2024/03/31 10:05:13;;;;;;;15.82;3.13;;;18.80;99.90;;;;;;5071323;28;20216;-60
2024/03/31 10:07:41;;;;;;;17.42;3.10;;;18.70;99.90;;;;;;5070763;28;20272;-60
2024/03/31 10:10:08;;;;;;;20.05;2.90;;;18.70;99.90;;;;;;5070997;28;20232;-58
2024/03/31 10:12:35;;;;;;;15.60;2.50;;;18.80;99.90;;;;;;5071187;28;20286;-59
2024/03/31 10:15:03;;;;;;;20.35;3.15;;;18.90;99.90;;;;;;5070771;28;20209;-61
2024/03/31 10:17:31;;;;;;;18.15;2.80;;;18.80;99.90;;;;;;5071089;28;20227;-60
2024/03/31 10:20:00;;;;;;;17.20;2.58;;;18.90;99.90;;;;;;5073974;28;20554;-56
2024/03/31 10:22:28;;;;;;;13.57;2.63;;;19.20;99.90;;;;;;5075185;28;20204;-56
2024/03/31 10:24:55;;;;;;;14.88;2.90;;;19.50;99.90;;;;;;5075139;28;20418;-59
2024/03/31 10:27:23;;;;;;;18.13;5.03;;;19.70;99.90;;;;;;5074696;28;20225;-59
2024/03/31 10:29:51;;;;;;;19.60;2.95;;;19.80;99.90;;;;;;5074991;28;20262;-58
2024/03/31 10:32:19;;;;;;;18.90;2.75;;;20.10;99.90;;;;;;5074931;28;20200;-59
2024/03/31 10:34:45;;;;;;;14.52;2.88;;;20.40;99.80;;;;;;5074894;28;20221;-60
2024/03/31 10:37:13;;;;;;;13.23;2.22;;;20.40;99.90;;;;;;5074682;28;20751;-65
2024/03/31 10:39:42;;;;;;;25.63;11.45;;;20.30;99.60;;;;;;5073648;28;20217;-60
2024/03/31 10:42:09;;;;;;;19.08;5.30;;;20.30;99.90;;;;;;5074763;28;20630;-62
2024/03/31 10:44:34;;;;;;;17.65;2.83;;;20.40;99.50;;;;;;5074578;28;20216;-60
2024/03/31 10:47:02;;;;;;;13.50;2.70;;;20.70;99.00;;;;;;5074358;28;20228;-57
2024/03/31 10:49:36;;;;;;;18.45;3.45;;;21.00;98.60;;;;;;5074751;28;20205;-58
2024/03/31 10:52:03;;;;;;;12.88;2.58;;;21.20;98.50;;;;;;5066665;28;20208;-60
2024/03/31 10:54:33;;;;;;;17.83;2.90;;;21.10;98.10;;;;;;5074743;28;20448;-60
2024/03/31 10:57:01;;;;;;;16.17;2.90;;;21.00;98.20;;;;;;5074216;28;20295;-55
2024/03/31 10:59:28;;;;;;;13.35;3.05;;;21.00;98.10;;;;;;5074518;28;20205;-60
2024/03/31 11:01:57;;;;;;;15.45;3.53;;;21.20;97.80;;;;;;5073774;28;20223;-58
2024/03/31 11:04:24;;;;;;;18.58;3.13;;;21.50;97.70;;;;;;5074630;28;20618;-54
2024/03/31 11:06:53;;;;;;;22.52;2.85;;;21.70;97.60;;;;;;5084591;28;20708;-54
2024/03/31 11:09:20;;;;;;;20.02;2.90;;;21.90;97.40;;;;;;5086615;28;20216;-53
2024/03/31 11:11:47;;;;;;;17.55;3.08;;;21.90;97.70;;;;;;5084602;28;20226;-55
2024/03/31 11:14:12;;;;;;;18.38;3.05;;;21.70;98.00;;;;;;5082890;28;20205;-54
2024/03/31 11:16:40;;;;;;;18.92;2.72;;;21.50;97.50;;;;;;5083312;28;20608;-54
2024/03/31 11:19:07;;;;;;;12.25;2.70;;;21.30;97.60;;;;;;5085871;28;20200;-56
2024/03/31 11:21:36;;;;;;;16.25;2.83;;;21.50;97.70;;;;;;5086274;28;20263;-57
2024/03/31 11:24:04;;;;;;;19.50;3.08;;;21.80;97.20;;;;;;5074909;28;20197;-55
2024/03/31 11:26:31;;;;;;;12.73;3.00;;;22.20;96.60;;;;;;5082452;28;20201;-54
2024/03/31 11:28:58;;;;;;;16.98;3.70;;;22.30;96.40;;;;;;5085311;28;20204;-54
2024/03/31 11:31:25;;;;;;;12.20;2.40;;;22.30;96.70;;;;;;5084664;28;20197;-56
2024/03/31 11:33:51;;;;;;;11.48;2.70;;;22.30;96.50;;;;;;5083752;28;20209;-58
2024/03/31 11:36:17;;;;;;;18.85;3.40;;;22.20;96.50;;;;;;5082191;28;20681;-58
2024/03/31 11:38:43;;;;;;;18.92;3.60;;;22.10;96.10;;;;;;5083143;28;20255;-58
2024/03/31 11:41:12;;;;;;;10.52;2.70;;;21.90;96.20;;;;;;5085777;28;20200;-59
2024/03/31 11:43:38;;;;;;;11.80;3.08;;;21.80;96.30;;;;;;5084984;28;20204;-57
2024/03/31 11:46:05;;;;;;;13.85;2.95;;;21.70;96.50;;;;;;5082184;28;20205;-58
2024/03/31 11:48:31;;;;;;;13.20;2.80;;;21.40;96.90;;;;;;5082041;28;20266;-57
2024/03/31 11:50:58;;;;;;;14.85;2.50;;;21.10;97.40;;;;;;5085659;28;20201;-57
2024/03/31 11:53:24;;;;;;;12.50;2.53;;;21.10;97.70;;;;;;5085836;28;20201;-59
2024/03/31 11:55:51;;;;;;;20.33;3.20;;;21.20;97.50;;;;;;5083963;28;20249;-58
2024/03/31 11:58:18;;;;;;;23.75;3.78;;;21.40;97.10;;;;;;5081760;28;20576;-59
2024/03/31 12:00:50;;;;;;;16.52;2.97;;;21.50;97.20;;;;;;5083062;28;20262;-58
2024/03/31 12:03:16;;;;;;;14.73;2.95;;;21.60;97.00;;;;;;5085465;28;20281;-57
2024/03/31 12:05:47;;;;;;;17.80;3.00;;;21.80;97.00;;;;;;5084223;28;20673;-57
2024/03/31 12:08:14;;;;;;;11.50;2.55;;;21.90;96.90;;;;;;5081547;28;20225;-58
2024/03/31 12:10:40;;;;;;;20.88;3.38;;;22.10;96.70;;;;;;5082286;28;20664;-58
2024/03/31 12:13:06;;;;;;;20.40;3.30;;;22.40;96.80;;;;;;5085092;28;20200;-56
2024/03/31 12:15:34;;;;;;;15.38;3.17;;;22.50;96.30;;;;;;5085432;28;20723;-58
2024/03/31 12:18:00;;;;;;;16.17;3.03;;;22.60;96.10;;;;;;5081509;28;20220;-58
2024/03/31 12:20:27;;;;;;;18.90;3.35;;;22.70;96.00;;;;;;5081726;28;20205;-58
2024/03/31 12:22:54;;;;;;;13.05;2.63;;;22.90;95.60;;;;;;5083642;28;20208;-58
2024/03/31 12:25:21;;;;;;;15.80;3.35;;;23.00;95.70;;;;;;5084888;28;20200;-58
2024/03/31 12:27:47;;;;;;;16.02;3.42;;;23.10;95.80;;;;;;5083143;28;20235;-57
2024/03/31 12:30:14;;;;;;;15.88;3.25;;;23.20;94.80;;;;;;5081561;28;20197;-58
2024/03/31 12:32:41;;;;;;;19.50;2.80;;;23.20;94.10;;;;;;5081684;28;20213;-60
2024/03/31 12:35:08;;;;;;;12.05;2.78;;;23.20;94.80;;;;;;5084851;28;20204;-57